WD4IXD Weather Reports


Display with metric or nautical units.
time (UTC)temp
F
wind
direction
speed
MPH
gust
MPH
rain 1hr
in
rain 24hr
in
rain mn
in
humidity
%
barometer
mb
20240304023504 44 46 3.0 7.0 0.00 0.00 0.00 37 1006.6
20240304023004 44 60 3.0 7.0 0.00 0.00 0.00 37 1006.5
20240304022503 44 47 5.0 12.0 0.00 0.00 0.00 37 1006.4
20240304022004 44 43 7.0 12.0 0.00 0.00 0.00 36 1006.3
20240304021503 45 41 6.0 12.0 0.00 0.00 0.00 35 1006.3
20240304021003 45 39 6.0 10.0 0.00 0.00 0.00 35 1006.2
20240304020504 46 39 5.0 10.0 0.00 0.00 0.00 34 1006.0
20240304020003 46 47 5.0 14.0 0.00 0.00 0.00 33 1006.0
20240304015504 46 51 4.0 9.0 0.00 0.00 0.00 32 1006.0
20240304015003 46 54 3.0 5.0 0.00 0.00 0.00 35 1005.7
20240304014504 46 43 1.0 3.0 0.00 0.00 0.00 35 1005.8
20240304014004 46 31 3.0 6.0 0.00 0.00 0.00 35 1005.6
20240304013504 47 38 3.0 5.0 0.00 0.00 0.00 35 1005.5
20240304013004 47 55 0.0 3.0 0.00 0.00 0.00 34 1005.5
20240304012503 47 68 1.0 3.0 0.00 0.00 0.00 33 1005.5
20240304012004 48 40 0.0 2.0 0.00 0.00 0.00 33 1005.5
20240304011504 48 20 2.0 3.0 0.00 0.00 0.00 31 1005.4
20240304011004 49 16 2.0 3.0 0.00 0.00 0.00 31 1005.4
20240304010504 49 20 3.0 7.0 0.00 0.00 0.00 30 1005.1
20240304010004 50 14 1.0 3.0 0.00 0.00 0.00 29 1005.1
20240304005504 50 23 2.0 3.0 0.00 0.00 0.00 29 1005.1
20240304005004 51 1 2.0 3.0 0.00 0.00 0.00 28 1005.1
20240304004504 51 14 1.0 3.0 0.00 0.00 0.00 28 1005.0
20240304004004 51 341 2.0 3.0 0.00 0.00 0.00 27 1004.9
20240304003504 52 300 2.0 5.0 0.00 0.00 0.00 27 1004.7
20240304003004 52 280 2.0 5.0 0.00 0.00 0.00 26 1004.7
20240304002504 52 220 2.0 7.0 0.00 0.00 0.00 26 1004.8
20240304002003 53 260 5.0 9.0 0.00 0.00 0.00 25 1004.8
20240304001504 53 239 5.0 12.0 0.00 0.00 0.00 25 1004.8
20240304001004 53 230 10.0 18.0 0.00 0.00 0.00 25 1004.8
20240304000504 54 258 10.0 23.0 0.00 0.00 0.00 24 1004.6
20240304000003 54 267 9.0 13.0 0.00 0.00 0.00 24 1004.5
20240303235504 54 283 7.0 14.0 0.00 0.00 0.00 24 1004.5
20240303235004 54 237 6.0 12.0 0.00 0.00 0.00 24 1004.5
20240303234504 54 271 6.0 13.0 0.00 0.00 0.00 24 1004.4
20240303234004 54 286 7.0 16.0 0.00 0.00 0.00 24 1004.4
20240303233504 54 259 10.0 23.0 0.00 0.00 0.00 24 1004.4
20240303233003 54 295 10.0 21.0 0.00 0.00 0.00 24 1004.3
20240303232504 54 259 13.0 28.0 0.00 0.00 0.00 24 1004.4
20240303232003 54 261 14.0 23.0 0.00 0.00 0.00 24 1004.2
20240303231504 54 255 16.0 23.0 0.00 0.00 0.00 24 1004.3
20240303231003 54 240 18.0 32.0 0.00 0.00 0.00 23 1004.2
20240303230504 55 264 15.0 30.0 0.00 0.00 0.00 23 1004.3
20240303230004 55 224 12.0 20.0 0.00 0.00 0.00 22 1004.3
20240303225504 55 283 10.0 15.0 0.00 0.00 0.00 23 1004.2
20240303225003 54 244 9.0 15.0 0.00 0.00 0.00 23 1004.2
20240303224504 54 237 16.0 23.0 0.00 0.00 0.00 23 1004.2
20240303224004 54 264 13.0 21.0 0.00 0.00 0.00 24 1004.3
20240303223504 54 241 18.0 26.0 0.00 0.00 0.00 23 1004.0
20240303223003 54 255 17.0 35.0 0.00 0.00 0.00 22 1004.1
20240303222504 54 257 20.0 30.0 0.00 0.00 0.00 22 1004.2
20240303222003 54 246 17.0 24.0 0.00 0.00 0.00 22 1004.3
20240303221504 54 246 22.0 35.0 0.00 0.00 0.00 22 1004.3
20240303221004 54 260 24.0 39.0 0.00 0.00 0.00 22 1004.3
20240303220504 54 247 21.0 33.0 0.00 0.00 0.00 22 1004.2
20240303220004 54 256 23.0 35.0 0.00 0.00 0.00 21 1004.2
20240303215504 53 234 21.0 33.0 0.00 0.00 0.00 21 1004.1
20240303215004 53 246 23.0 40.0 0.00 0.00 0.00 21 1004.1
20240303214504 53 241 27.0 41.0 0.00 0.00 0.00 21 1004.1
20240303214004 53 245 16.0 33.0 0.00 0.00 0.00 21 1004.1
20240303213504 54 256 21.0 38.0 0.00 0.00 0.00 21 1004.0
20240303213004 53 260 21.0 33.0 0.00 0.00 0.00 20 1004.0
20240303212504 53 239 26.0 39.0 0.00 0.00 0.00 21 1004.0
20240303212004 54 243 22.0 35.0 0.00 0.00 0.00 20 1004.0
20240303211504 54 247 22.0 38.0 0.00 0.00 0.00 20 1004.0
20240303211004 53 262 20.0 33.0 0.00 0.00 0.00 20 1004.0
20240303210504 54 252 25.0 33.0 0.00 0.00 0.00 20 1004.0
20240303210004 53 251 17.0 33.0 0.00 0.00 0.00 21 1004.0
20240303205504 53 228 22.0 37.0 0.00 0.00 0.00 21 1003.9
20240303205004 53 265 26.0 37.0 0.00 0.00 0.00 20 1004.0
20240303204504 53 248 20.0 40.0 0.00 0.00 0.00 21 1004.0
20240303204004 53 262 20.0 32.0 0.00 0.00 0.00 21 1004.0
20240303203504 53 264 17.0 30.0 0.00 0.00 0.00 23 1004.1
20240303203003 53 250 21.0 28.0 0.00 0.00 0.00 23 1004.3
20240303202504 53 221 18.0 32.0 0.00 0.00 0.00 22 1004.3
20240303202004 52 249 14.0 26.0 0.00 0.00 0.00 23 1004.4
20240303201504 52 258 19.0 28.0 0.00 0.00 0.00 23 1004.4
20240303201003 52 232 20.0 33.0 0.00 0.00 0.00 22 1004.5
20240303200503 52 235 25.0 40.0 0.00 0.00 0.00 22 1004.5
20240303200004 53 224 10.0 23.0 0.00 0.00 0.00 23 1004.4
20240303195504 52 262 17.0 26.0 0.00 0.00 0.00 22 1004.5
20240303195004 52 253 20.0 33.0 0.00 0.00 0.00 23 1004.5
20240303194504 51 272 13.0 21.0 0.00 0.00 0.00 24 1004.7
20240303194004 50 249 14.0 23.0 0.00 0.00 0.00 24 1004.7
20240303193504 50 256 17.0 30.0 0.00 0.00 0.00 24 1004.8
20240303193003 51 275 15.0 26.0 0.00 0.00 0.00 24 1004.8
20240303192504 51 262 14.0 26.0 0.00 0.00 0.00 24 1004.8
20240303192003 50 260 16.0 25.0 0.00 0.00 0.00 23 1004.9
20240303191504 50 256 17.0 31.0 0.00 0.00 0.00 24 1004.9
20240303191004 50 257 16.0 24.0 0.00 0.00 0.00 24 1005.1
20240303190504 50 270 17.0 26.0 0.00 0.00 0.00 24 1005.1
20240303190004 50 225 17.0 26.0 0.00 0.00 0.00 24 1005.1
20240303185504 50 254 14.0 18.0 0.00 0.00 0.00 25 1005.2
20240303185004 51 239 11.0 18.0 0.00 0.00 0.00 27 1005.2
20240303184504 51 194 8.0 17.0 0.00 0.00 0.00 28 1005.2
20240303184004 52 175 5.0 13.0 0.00 0.00 0.00 27 1005.2
20240303183504 52 211 5.0 12.0 0.00 0.00 0.00 29 1005.3
20240303183004 51 55 1.0 9.0 0.00 0.00 0.00 30 1005.3
20240303182503 51 122 2.0 5.0 0.00 0.00 0.00 30 1005.4
20240303182004 50 87 2.0 6.0 0.00 0.00 0.00 32 1005.6
20240303181503 49 188 6.0 13.0 0.00 0.00 0.00 33 1005.7
20240303181004 48 152 6.0 13.0 0.00 0.00 0.00 34 1005.8
20240303180504 48 156 5.0 12.0 0.00 0.00 0.00 34 1005.8
20240303180004 47 162 7.0 15.0 0.00 0.00 0.00 35 1005.9
20240303175503 47 145 9.0 15.0 0.00 0.00 0.00 34 1006.0
20240303175004 47 200 9.0 16.0 0.00 0.00 0.00 34 1006.2
20240303174504 47 154 10.0 20.0 0.00 0.00 0.00 36 1006.1
20240303174004 47 149 8.0 15.0 0.00 0.00 0.00 35 1006.2
20240303173504 47 224 4.0 9.0 0.00 0.00 0.00 37 1006.3
20240303173004 45 142 5.0 9.0 0.00 0.00 0.00 37 1006.3
20240303172504 45 155 7.0 13.0 0.00 0.00 0.00 36 1006.3
20240303172003 44 153 9.0 14.0 0.00 0.00 0.00 36 1006.4
20240303171503 44 137 7.0 16.0 0.00 0.00 0.00 34 1006.5
20240303171004 45 147 6.0 12.0 0.00 0.00 0.00 34 1006.4
20240303170503 44 160 5.0 13.0 0.00 0.00 0.00 34 1006.6
20240303170004 44 118 7.0 15.0 0.00 0.00 0.00 33 1006.3
20240303165504 45 164 10.0 16.0 0.00 0.00 0.00 32 1006.2
20240303165004 45 213 6.0 9.0 0.00 0.00 0.00 30 1006.2
20240303164503 45 237 7.0 12.0 0.00 0.00 0.00 29 1006.4
20240303164004 45 185 4.0 8.0 0.00 0.00 0.00 28 1006.6
20240303163504 45 238 7.0 15.0 0.00 0.00 0.00 29 1006.8
20240303163004 44 134 5.0 9.0 0.00 0.00 0.00 31 1006.7
20240303162504 44 175 3.0 10.0 0.00 0.00 0.00 30 1006.8
20240303162004 44 192 4.0 8.0 0.00 0.00 0.00 31 1006.7
20240303161503 44 197 5.0 12.0 0.00 0.00 0.00 32 1006.8
20240303161004 43 202 5.0 9.0 0.00 0.00 0.00 31 1006.8
20240303160504 44 112 5.0 7.0 0.00 0.00 0.00 33 1006.7
20240303160003 43 120 0.0 2.0 0.00 0.00 0.00 33 1006.7
20240303155504 42 239 1.0 3.0 0.00 0.00 0.00 33 1006.6
20240303155004 42 182 0.0 3.0 0.00 0.00 0.00 34 1006.7
20240303154504 42 148 2.0 5.0 0.00 0.00 0.00 35 1006.8
20240303154004 41 117 1.0 6.0 0.00 0.00 0.00 35 1006.9
20240303153503 41 185 1.0 3.0 0.00 0.00 0.00 37 1006.8
20240303153004 40 78 1.0 2.0 0.00 0.00 0.00 37 1007.0
20240303152503 39 91 2.0 3.0 0.00 0.00 0.00 38 1007.1
20240303152004 39 140 3.0 5.0 0.00 0.00 0.00 38 1007.2
20240303151503 39 179 2.0 5.0 0.00 0.00 0.00 39 1007.2
20240303151004 38 167 1.0 3.0 0.00 0.00 0.00 38 1007.2
20240303150503 38 161 1.0 3.0 0.00 0.00 0.00 39 1007.2
20240303150004 38 165 0.0 3.0 0.00 0.00 0.00 41 1007.1
20240303145503 38 168 3.0 5.0 0.00 0.00 0.00 41 1007.1
20240303145004 37 123 0.0 1.0 0.00 0.00 0.00 38 1006.9
20240303144503 37 123 0.0 0.0 0.00 0.00 0.00 39 1006.5
20240303144004 37 123 2.0 3.0 0.00 0.00 0.00 39 1006.5
20240303143504 36 124 2.0 6.0 0.00 0.00 0.00 40 1006.5
20240303143004 36 276 0.0 1.0 0.00 0.00 0.00 42 1006.9
20240303142504 36 276 0.0 2.0 0.00 0.00 0.00 41 1006.9
20240303142003 37 276 1.0 2.0 0.00 0.00 0.00 40 1006.9
20240303141504 37 290 1.0 3.0 0.00 0.00 0.00 38 1006.8
20240303141004 37 298 2.0 9.0 0.00 0.00 0.00 37 1006.6
20240303140504 36 308 6.0 12.0 0.00 0.00 0.00 36 1006.6
20240303140004 36 311 5.0 12.0 0.00 0.00 0.00 37 1006.8
20240303135504 36 301 7.0 12.0 0.00 0.00 0.00 37 1006.7
20240303135004 36 323 6.0 12.0 0.00 0.00 0.00 37 1006.8
20240303134504 35 322 7.0 12.0 0.00 0.00 0.00 38 1006.5
20240303134004 35 353 6.0 10.0 0.00 0.00 0.00 39 1006.2
20240303133503 35 349 5.0 8.0 0.00 0.00 0.00 40 1006.2
20240303133004 35 16 6.0 10.0 0.00 0.00 0.00 40 1006.0
20240303132503 35 18 3.0 7.0 0.00 0.00 0.00 41 1005.9
20240303132004 35 13 5.0 9.0 0.00 0.00 0.00 40 1005.8
20240303131503 36 15 4.0 8.0 0.00 0.00 0.00 41 1005.8
20240303131004 36 19 3.0 6.0 0.00 0.00 0.00 41 1005.7
20240303130503 36 22 5.0 9.0 0.00 0.00 0.00 40 1005.9
20240303130004 36 6 7.0 12.0 0.00 0.00 0.00 40 1006.0
20240303125503 36 6 5.0 9.0 0.00 0.00 0.00 40 1006.3
20240303125004 36 351 9.0 14.0 0.00 0.00 0.00 40 1006.0
20240303124503 36 5 12.0 16.0 0.00 0.00 0.00 40 1005.3
20240303124004 36 0 9.0 15.0 0.00 0.00 0.00 40 1005.8
20240303123503 36 15 9.0 13.0 0.00 0.00 0.00 41 1005.6
20240303123004 36 351 10.0 14.0 0.00 0.00 0.00 41 1005.7
20240303122503 36 0 8.0 12.0 0.00 0.00 0.00 42 1005.4
20240303122004 36 6 10.0 14.0 0.00 0.00 0.00 44 1005.1
20240303121503 36 351 7.0 13.0 0.00 0.00 0.00 46 1005.0
20240303121004 36 349 6.0 10.0 0.00 0.00 0.00 50 1005.0
20240303120504 35 358 8.0 13.0 0.00 0.00 0.00 52 1004.7
20240303120004 35 358 9.0 13.0 0.00 0.00 0.00 58 1004.6
20240303115504 35 354 7.0 14.0 0.00 0.00 0.00 66 1004.9
20240303115004 35 346 3.0 6.0 0.00 0.00 0.00 75 1005.0
20240303114504 35 101 2.0 8.0 0.00 0.00 0.00 76 1005.1
20240303114005 35 112 1.0 6.0 0.00 0.00 0.00 76 1005.4
20240303113504 35 116 2.0 3.0 0.00 0.00 0.00 76 1005.4
20240303113003 35 91 0.0 6.0 0.00 0.00 0.00 76 1005.1
20240303112504 35 116 3.0 7.0 0.00 0.00 0.00 76 1004.8
20240303112004 35 109 5.0 7.0 0.00 0.00 0.00 76 1004.4
20240303111504 35 113 1.0 3.0 0.00 0.00 0.00 76 1004.2
20240303111004 35 110 3.0 8.0 0.00 0.00 0.00 75 1003.7
20240303110504 35 117 2.0 7.0 0.00 0.00 0.00 75 1003.5
20240303110004 35 105 6.0 10.0 0.00 0.00 0.00 74 1003.5
20240303105504 36 111 5.0 8.0 0.00 0.00 0.00 74 1003.5
20240303105003 36 100 2.0 3.0 0.00 0.00 0.00 75 1003.5
20240303104504 36 108 3.0 3.0 0.00 0.00 0.00 77 1003.4
20240303104004 35 114 2.0 3.0 0.00 0.00 0.00 79 1003.5
20240303103504 34 352 2.0 3.0 0.00 0.00 0.00 82 1003.4
20240303103003 34 293 3.0 9.0 0.00 0.00 0.00 83 1003.1
20240303102504 34 289 5.0 15.0 0.00 0.00 0.00 83 1003.1
20240303102003 33 283 9.0 20.0 0.00 0.00 0.00 84 1002.9
20240303101504 33 300 8.0 21.0 0.00 0.00 0.00 83 1002.8
20240303101003 34 315 17.0 26.0 0.00 0.00 0.00 81 1002.8
20240303100504 35 296 16.0 26.0 0.00 0.00 0.00 78 1002.9
20240303100003 36 310 17.0 29.0 0.00 0.00 0.00 75 1002.8
20240303095504 37 313 16.0 26.0 0.00 0.00 0.00 71 1002.6
20240303095004 38 314 14.0 25.0 0.00 0.00 0.00 69 1002.3
20240303094504 38 330 13.0 20.0 0.00 0.00 0.00 66 1001.9
20240303094003 39 333 14.0 24.0 0.00 0.00 0.00 64 1001.6
20240303093504 39 331 13.0 21.0 0.00 0.00 0.00 60 1001.6
20240303093003 40 341 12.0 20.0 0.00 0.00 0.00 57 1001.5
20240303092504 42 343 20.0 28.0 0.00 0.00 0.00 54 1001.2
20240303092004 44 326 16.0 26.0 0.00 0.00 0.00 49 1000.8
20240303091504 47 343 13.0 20.0 0.00 0.00 0.00 44 1000.7
20240303091004 51 334 11.0 20.0 0.00 0.00 0.00 37 1000.7
20240303090504 51 225 12.0 20.0 0.00 0.00 0.00 33 1000.1
20240303090004 51 181 16.0 24.0 0.00 0.00 0.00 33 999.5
20240303085504 51 208 16.0 25.0 0.00 0.00 0.00 33 999.2
20240303085004 51 188 10.0 18.0 0.00 0.00 0.00 33 999.2
20240303084504 51 199 8.0 18.0 0.00 0.00 0.00 33 999.1
20240303084003 51 186 16.0 24.0 0.00 0.00 0.00 33 999.1
20240303083504 51 226 7.0 12.0 0.00 0.00 0.00 34 999.4
20240303083003 51 222 11.0 16.0 0.00 0.00 0.00 33 999.4
20240303082504 51 219 12.0 21.0 0.00 0.00 0.00 33 999.4
20240303082003 51 228 16.0 20.0 0.00 0.00 0.00 33 999.5
20240303081504 51 214 11.0 21.0 0.00 0.00 0.00 33 999.4
20240303081004 51 206 17.0 26.0 0.00 0.00 0.00 32 999.6
20240303080504 52 204 13.0 24.0 0.00 0.00 0.00 32 999.6
20240303080004 52 219 12.0 20.0 0.00 0.00 0.00 32 999.6
20240303075504 52 254 17.0 26.0 0.00 0.00 0.00 31 999.6
20240303075004 52 232 18.0 24.0 0.00 0.00 0.00 30 999.6
20240303074503 53 201 12.0 28.0 0.00 0.00 0.00 29 999.6
20240303074004 53 209 16.0 28.0 0.00 0.00 0.00 29 999.6
20240303073504 53 209 18.0 30.0 0.00 0.00 0.00 29 999.6
20240303073004 53 216 20.0 30.0 0.00 0.00 0.00 29 999.4
20240303072503 53 214 20.0 33.0 0.00 0.00 0.00 28 999.5
20240303072004 53 203 13.0 23.0 0.00 0.00 0.00 27 999.7
20240303071503 53 214 16.0 25.0 0.00 0.00 0.00 26 999.6
20240303071003 53 213 16.0 24.0 0.00 0.00 0.00 26 999.7
20240303070504 53 219 11.0 18.0 0.00 0.00 0.00 25 999.7
20240303070003 53 193 15.0 22.0 0.00 0.00 0.00 25 999.7
20240303065503 53 206 10.0 20.0 0.00 0.00 0.00 26 999.8
20240303065004 52 205 10.0 20.0 0.00 0.00 0.00 26 999.7
20240303064503 52 184 9.0 16.0 0.00 0.00 0.00 26 999.7
20240303064004 52 173 5.0 8.0 0.00 0.00 0.00 27 999.7
20240303063504 53 187 5.0 8.0 0.00 0.00 0.00 26 999.7
20240303063004 53 221 7.0 13.0 0.00 0.00 0.00 26 999.6
20240303062503 53 219 8.0 14.0 0.00 0.00 0.00 25 999.6
20240303062004 53 218 10.0 15.0 0.00 0.00 0.00 25 999.6
20240303061504 54 218 9.0 13.0 0.00 0.00 0.00 25 999.7
20240303061003 54 218 6.0 13.0 0.00 0.00 0.00 24 999.8
20240303060504 54 231 11.0 20.0 0.00 0.00 0.00 24 999.7
20240303060003 54 220 12.0 20.0 0.00 0.00 0.00 24 999.8
20240303055504 54 190 7.0 15.0 0.00 0.00 0.00 24 999.8
20240303055003 54 220 9.0 12.0 0.00 0.00 0.00 24 999.8
20240303054503 54 223 10.0 13.0 0.00 0.00 0.00 24 999.9
20240303054004 54 226 9.0 14.0 0.00 0.00 0.00 24 999.9
20240303053504 54 213 7.0 12.0 0.00 0.00 0.00 24 999.9
20240303053004 54 227 9.0 12.0 0.00 0.00 0.00 24 999.9
20240303052504 55 214 6.0 12.0 0.00 0.00 0.00 23 999.8
20240303052003 55 210 5.0 12.0 0.00 0.00 0.00 23 999.7
20240303051504 55 207 7.0 13.0 0.00 0.00 0.00 23 999.8
20240303051004 55 216 12.0 20.0 0.00 0.00 0.00 22 999.8
20240303050504 56 212 18.0 26.0 0.00 0.00 0.00 22 999.8
20240303050003 56 227 20.0 31.0 0.00 0.00 0.00 22 999.9
20240303045504 56 206 17.0 37.0 0.00 0.00 0.00 22 999.8
20240303045004 56 213 21.0 35.0 0.00 0.00 0.00 22 999.9
20240303044504 56 218 20.0 33.0 0.00 0.00 0.00 22 999.9
20240303044004 56 243 24.0 31.0 0.00 0.00 0.00 21 999.9
20240303043504 56 217 13.0 18.0 0.00 0.00 0.00 22 1000.2
20240303043004 56 211 13.0 23.0 0.00 0.00 0.00 21 1000.1
20240303042504 56 213 20.0 29.0 0.00 0.00 0.00 21 1000.0
20240303042004 56 217 21.0 31.0 0.00 0.00 0.00 21 999.8
20240303041504 56 190 15.0 28.0 0.00 0.00 0.00 21 999.9
20240303041004 56 228 20.0 26.0 0.00 0.00 0.00 21 999.9
20240303040504 57 223 16.0 30.0 0.00 0.00 0.00 21 1000.1
20240303040004 57 235 20.0 32.0 0.00 0.00 0.00 21 1000.2
20240303035504 57 204 12.0 23.0 0.00 0.00 0.00 21 1000.3
20240303035004 57 218 14.0 28.0 0.00 0.00 0.00 21 1000.4
20240303034503 57 233 26.0 40.0 0.00 0.00 0.00 21 1000.3
20240303034004 56 220 25.0 33.0 0.00 0.00 0.00 22 1000.4
20240303033504 54 229 17.0 26.0 0.00 0.00 0.00 22 1000.4
20240303033004 53 202 11.0 17.0 0.00 0.00 0.00 23 1000.4
20240303032504 53 173 8.0 13.0 0.00 0.00 0.00 23 1000.5
20240303032004 54 164 7.0 15.0 0.00 0.00 0.00 22 1000.5
20240303031503 55 164 6.0 13.0 0.00 0.00 0.00 21 1000.6
20240303031004 56 184 12.0 18.0 0.00 0.00 0.00 20 1000.5
20240303030503 57 224 29.0 41.0 0.00 0.00 0.00 20 1000.4
20240303030004 56 207 14.0 23.0 0.00 0.00 0.00 20 1000.7
20240303025504 55 201 15.0 29.0 0.00 0.00 0.00 21 1000.5
20240303025003 54 170 11.0 16.0 0.00 0.00 0.00 22 1000.7
20240303024504 55 156 9.0 17.0 0.00 0.00 0.00 21 1000.6
20240303024003 55 162 8.0 14.0 0.00 0.00 0.00 20 1000.6